sensor_id;sensor_type;location;lat;lon;timestamp;P1;durP1;ratioP1;P2;durP2;ratioP2
31966;SDS011;18496;52.042;6.812;2022-09-13T00:00:02;13.27;;;7.88;;
31966;SDS011;18496;52.042;6.812;2022-09-13T00:02:13;12.02;;;8.38;;
31966;SDS011;18496;52.042;6.812;2022-09-13T00:06:37;12.35;;;8.63;;
31966;SDS011;18496;52.042;6.812;2022-09-13T00:08:46;10.50;;;7.80;;
31966;SDS011;18496;52.042;6.812;2022-09-13T00:10:53;11.32;;;7.97;;
31966;SDS011;18496;52.042;6.812;2022-09-13T00:12:57;13.63;;;8.70;;
31966;SDS011;18496;52.042;6.812;2022-09-13T00:15:00;10.38;;;7.93;;
31966;SDS011;18496;52.042;6.812;2022-09-13T00:17:17;15.07;;;8.10;;
31966;SDS011;18496;52.042;6.812;2022-09-13T00:19:21;11.88;;;8.40;;
31966;SDS011;18496;52.042;6.812;2022-09-13T00:21:28;15.68;;;8.70;;
31966;SDS011;18496;52.042;6.812;2022-09-13T00:23:42;12.43;;;8.57;;
31966;SDS011;18496;52.042;6.812;2022-09-13T00:25:50;13.75;;;8.35;;
31966;SDS011;18496;52.042;6.812;2022-09-13T00:28:04;12.65;;;8.48;;
31966;SDS011;18496;52.042;6.812;2022-09-13T00:30:08;11.55;;;7.93;;
31966;SDS011;18496;52.042;6.812;2022-09-13T00:32:23;13.13;;;9.05;;
31966;SDS011;18496;52.042;6.812;2022-09-13T00:34:30;12.40;;;9.07;;
31966;SDS011;18496;52.042;6.812;2022-09-13T00:36:34;14.38;;;8.57;;
31966;SDS011;18496;52.042;6.812;2022-09-13T00:40:54;14.63;;;9.02;;
31966;SDS011;18496;52.042;6.812;2022-09-13T00:43:01;15.05;;;8.70;;
31966;SDS011;18496;52.042;6.812;2022-09-13T00:45:18;15.38;;;9.13;;
31966;SDS011;18496;52.042;6.812;2022-09-13T00:47:33;16.70;;;9.75;;
31966;SDS011;18496;52.042;6.812;2022-09-13T00:49:59;13.40;;;9.38;;
31966;SDS011;18496;52.042;6.812;2022-09-13T00:52:11;14.85;;;8.77;;
31966;SDS011;18496;52.042;6.812;2022-09-13T00:54:45;17.85;;;8.93;;
31966;SDS011;18496;52.042;6.812;2022-09-13T00:56:51;14.50;;;9.02;;
31966;SDS011;18496;52.042;6.812;2022-09-13T00:59:00;12.20;;;8.38;;
31966;SDS011;18496;52.042;6.812;2022-09-13T01:01:08;14.25;;;10.25;;
31966;SDS011;18496;52.042;6.812;2022-09-13T01:03:16;12.52;;;8.27;;
31966;SDS011;18496;52.042;6.812;2022-09-13T01:05:24;13.90;;;8.68;;
31966;SDS011;18496;52.042;6.812;2022-09-13T01:07:31;15.85;;;8.55;;
31966;SDS011;18496;52.042;6.812;2022-09-13T01:09:36;18.00;;;8.52;;
31966;SDS011;18496;52.042;6.812;2022-09-13T01:11:58;15.57;;;8.82;;
31966;SDS011;18496;52.042;6.812;2022-09-13T01:14:06;15.60;;;9.27;;
31966;SDS011;18496;52.042;6.812;2022-09-13T01:16:11;16.08;;;8.70;;
31966;SDS011;18496;52.042;6.812;2022-09-13T01:18:15;10.68;;;8.45;;
31966;SDS011;18496;52.042;6.812;2022-09-13T01:20:20;14.95;;;8.30;;
31966;SDS011;18496;52.042;6.812;2022-09-13T01:32:15;14.60;;;8.98;;
31966;SDS011;18496;52.042;6.812;2022-09-13T01:34:41;14.95;;;8.50;;
31966;SDS011;18496;52.042;6.812;2022-09-13T01:37:14;15.60;;;9.30;;
31966;SDS011;18496;52.042;6.812;2022-09-13T01:42:18;13.35;;;8.27;;
31966;SDS011;18496;52.042;6.812;2022-09-13T01:55:34;13.88;;;8.95;;
31966;SDS011;18496;52.042;6.812;2022-09-13T01:57:50;17.25;;;9.63;;
31966;SDS011;18496;52.042;6.812;2022-09-13T02:02:30;15.93;;;10.07;;
31966;SDS011;18496;52.042;6.812;2022-09-13T02:04:47;11.38;;;8.25;;
31966;SDS011;18496;52.042;6.812;2022-09-13T02:07:18;13.75;;;9.18;;
31966;SDS011;18496;52.042;6.812;2022-09-13T02:09:23;11.48;;;8.57;;
31966;SDS011;18496;52.042;6.812;2022-09-13T02:11:29;14.18;;;9.43;;
31966;SDS011;18496;52.042;6.812;2022-09-13T02:13:37;14.02;;;8.85;;
31966;SDS011;18496;52.042;6.812;2022-09-13T02:15:46;12.80;;;8.73;;
31966;SDS011;18496;52.042;6.812;2022-09-13T02:17:54;15.40;;;9.05;;
31966;SDS011;18496;52.042;6.812;2022-09-13T02:20:23;14.20;;;9.18;;
31966;SDS011;18496;52.042;6.812;2022-09-13T02:22:32;15.32;;;9.95;;
31966;SDS011;18496;52.042;6.812;2022-09-13T02:24:40;13.32;;;9.50;;
31966;SDS011;18496;52.042;6.812;2022-09-13T02:26:47;14.27;;;9.38;;
31966;SDS011;18496;52.042;6.812;2022-09-13T02:28:55;14.80;;;10.25;;
31966;SDS011;18496;52.042;6.812;2022-09-13T02:31:03;13.45;;;9.07;;
31966;SDS011;18496;52.042;6.812;2022-09-13T02:33:12;13.10;;;9.15;;
31966;SDS011;18496;52.042;6.812;2022-09-13T02:35:30;14.55;;;8.77;;
31966;SDS011;18496;52.042;6.812;2022-09-13T02:38:14;14.55;;;10.02;;
31966;SDS011;18496;52.042;6.812;2022-09-13T02:40:22;17.30;;;10.07;;
31966;SDS011;18496;52.042;6.812;2022-09-13T02:42:35;16.38;;;9.07;;
31966;SDS011;18496;52.042;6.812;2022-09-13T02:44:50;18.13;;;10.45;;
31966;SDS011;18496;52.042;6.812;2022-09-13T02:49:41;15.40;;;9.10;;
31966;SDS011;18496;52.042;6.812;2022-09-13T02:51:46;15.70;;;9.60;;
31966;SDS011;18496;52.042;6.812;2022-09-13T02:54:12;14.57;;;9.80;;
31966;SDS011;18496;52.042;6.812;2022-09-13T02:56:23;18.75;;;9.73;;
31966;SDS011;18496;52.042;6.812;2022-09-13T03:00:53;15.75;;;10.45;;
31966;SDS011;18496;52.042;6.812;2022-09-13T03:02:58;22.92;;;9.70;;
31966;SDS011;18496;52.042;6.812;2022-09-13T03:05:06;15.48;;;10.63;;
31966;SDS011;18496;52.042;6.812;2022-09-13T03:07:11;15.75;;;10.10;;
31966;SDS011;18496;52.042;6.812;2022-09-13T03:09:15;18.00;;;10.50;;
31966;SDS011;18496;52.042;6.812;2022-09-13T03:14:00;16.38;;;10.73;;
31966;SDS011;18496;52.042;6.812;2022-09-13T03:16:15;21.85;;;10.77;;
31966;SDS011;18496;52.042;6.812;2022-09-13T03:23:12;16.58;;;10.55;;
31966;SDS011;18496;52.042;6.812;2022-09-13T03:25:33;15.43;;;11.23;;
31966;SDS011;18496;52.042;6.812;2022-09-13T03:28:19;17.83;;;11.15;;
31966;SDS011;18496;52.042;6.812;2022-09-13T03:30:32;18.98;;;11.57;;
31966;SDS011;18496;52.042;6.812;2022-09-13T03:32:49;16.35;;;11.02;;
31966;SDS011;18496;52.042;6.812;2022-09-13T03:35:22;19.63;;;11.43;;
31966;SDS011;18496;52.042;6.812;2022-09-13T03:37:32;18.70;;;11.32;;
31966;SDS011;18496;52.042;6.812;2022-09-13T03:41:49;24.30;;;12.63;;
31966;SDS011;18496;52.042;6.812;2022-09-13T03:43:58;18.67;;;11.25;;
31966;SDS011;18496;52.042;6.812;2022-09-13T03:46:08;22.70;;;11.52;;
31966;SDS011;18496;52.042;6.812;2022-09-13T03:48:34;19.58;;;11.43;;
31966;SDS011;18496;52.042;6.812;2022-09-13T03:50:41;21.60;;;12.18;;
31966;SDS011;18496;52.042;6.812;2022-09-13T03:52:50;16.73;;;11.52;;
31966;SDS011;18496;52.042;6.812;2022-09-13T03:54:59;17.55;;;11.45;;
31966;SDS011;18496;52.042;6.812;2022-09-13T03:59:20;23.13;;;12.88;;
31966;SDS011;18496;52.042;6.812;2022-09-13T04:01:23;18.23;;;12.20;;
31966;SDS011;18496;52.042;6.812;2022-09-13T04:03:27;18.13;;;11.93;;
31966;SDS011;18496;52.042;6.812;2022-09-13T04:05:31;25.95;;;13.25;;
31966;SDS011;18496;52.042;6.812;2022-09-13T04:07:36;20.90;;;12.88;;
31966;SDS011;18496;52.042;6.812;2022-09-13T04:09:40;17.88;;;11.60;;
31966;SDS011;18496;52.042;6.812;2022-09-13T04:11:44;23.23;;;13.70;;
31966;SDS011;18496;52.042;6.812;2022-09-13T04:13:47;23.02;;;13.98;;
31966;SDS011;18496;52.042;6.812;2022-09-13T04:15:51;20.85;;;13.73;;
31966;SDS011;18496;52.042;6.812;2022-09-13T04:17:55;24.30;;;13.35;;
31966;SDS011;18496;52.042;6.812;2022-09-13T04:19:59;23.58;;;13.25;;
31966;SDS011;18496;52.042;6.812;2022-09-13T04:22:02;26.67;;;13.65;;
31966;SDS011;18496;52.042;6.812;2022-09-13T04:24:06;21.55;;;14.93;;
31966;SDS011;18496;52.042;6.812;2022-09-13T04:26:10;23.75;;;14.60;;
31966;SDS011;18496;52.042;6.812;2022-09-13T04:28:15;21.23;;;14.20;;
31966;SDS011;18496;52.042;6.812;2022-09-13T04:30:19;24.55;;;15.38;;
31966;SDS011;18496;52.042;6.812;2022-09-13T04:32:24;25.77;;;15.95;;
31966;SDS011;18496;52.042;6.812;2022-09-13T04:34:27;26.25;;;14.90;;
31966;SDS011;18496;52.042;6.812;2022-09-13T04:36:32;23.15;;;14.57;;
31966;SDS011;18496;52.042;6.812;2022-09-13T04:38:35;32.65;;;14.80;;
31966;SDS011;18496;52.042;6.812;2022-09-13T04:40:39;26.27;;;15.90;;
31966;SDS011;18496;52.042;6.812;2022-09-13T04:42:43;29.25;;;16.25;;
31966;SDS011;18496;52.042;6.812;2022-09-13T04:44:47;23.80;;;15.40;;
31966;SDS011;18496;52.042;6.812;2022-09-13T04:46:52;29.60;;;16.40;;
31966;SDS011;18496;52.042;6.812;2022-09-13T04:48:55;27.88;;;16.80;;
31966;SDS011;18496;52.042;6.812;2022-09-13T04:51:00;26.17;;;15.43;;
31966;SDS011;18496;52.042;6.812;2022-09-13T04:53:07;27.25;;;16.30;;
31966;SDS011;18496;52.042;6.812;2022-09-13T04:55:11;28.30;;;16.30;;
31966;SDS011;18496;52.042;6.812;2022-09-13T04:57:15;31.92;;;18.00;;
31966;SDS011;18496;52.042;6.812;2022-09-13T04:59:19;31.52;;;16.60;;
31966;SDS011;18496;52.042;6.812;2022-09-13T05:01:23;29.33;;;17.65;;
31966;SDS011;18496;52.042;6.812;2022-09-13T05:03:30;33.20;;;18.08;;
31966;SDS011;18496;52.042;6.812;2022-09-13T05:05:34;28.63;;;16.35;;
31966;SDS011;18496;52.042;6.812;2022-09-13T05:07:38;28.20;;;17.20;;
31966;SDS011;18496;52.042;6.812;2022-09-13T05:09:44;31.65;;;17.92;;
31966;SDS011;18496;52.042;6.812;2022-09-13T05:11:48;26.05;;;16.65;;
31966;SDS011;18496;52.042;6.812;2022-09-13T05:13:52;28.60;;;18.17;;
31966;SDS011;18496;52.042;6.812;2022-09-13T05:15:58;28.10;;;17.50;;
31966;SDS011;18496;52.042;6.812;2022-09-13T05:18:04;27.25;;;17.73;;
31966;SDS011;18496;52.042;6.812;2022-09-13T05:20:07;27.75;;;16.95;;
31966;SDS011;18496;52.042;6.812;2022-09-13T05:22:12;29.02;;;17.48;;
31966;SDS011;18496;52.042;6.812;2022-09-13T05:24:16;30.27;;;18.08;;
31966;SDS011;18496;52.042;6.812;2022-09-13T05:26:20;26.08;;;16.67;;
31966;SDS011;18496;52.042;6.812;2022-09-13T05:28:28;26.58;;;18.15;;
31966;SDS011;18496;52.042;6.812;2022-09-13T05:30:33;31.55;;;17.70;;
31966;SDS011;18496;52.042;6.812;2022-09-13T05:32:37;29.83;;;16.85;;
31966;SDS011;18496;52.042;6.812;2022-09-13T05:34:40;28.70;;;16.90;;
31966;SDS011;18496;52.042;6.812;2022-09-13T05:36:44;26.67;;;16.83;;
31966;SDS011;18496;52.042;6.812;2022-09-13T05:38:48;30.40;;;15.95;;
31966;SDS011;18496;52.042;6.812;2022-09-13T05:41:01;33.45;;;17.08;;
31966;SDS011;18496;52.042;6.812;2022-09-13T05:43:06;28.60;;;17.52;;
31966;SDS011;18496;52.042;6.812;2022-09-13T05:45:09;30.40;;;17.67;;
31966;SDS011;18496;52.042;6.812;2022-09-13T05:47:14;28.70;;;16.63;;
31966;SDS011;18496;52.042;6.812;2022-09-13T05:49:17;28.63;;;17.17;;
31966;SDS011;18496;52.042;6.812;2022-09-13T05:51:21;32.80;;;18.42;;
31966;SDS011;18496;52.042;6.812;2022-09-13T05:53:25;33.85;;;18.50;;
31966;SDS011;18496;52.042;6.812;2022-09-13T05:55:29;31.05;;;18.58;;
31966;SDS011;18496;52.042;6.812;2022-09-13T05:57:33;32.20;;;19.05;;
31966;SDS011;18496;52.042;6.812;2022-09-13T05:59:36;34.75;;;16.92;;
31966;SDS011;18496;52.042;6.812;2022-09-13T06:01:40;33.83;;;17.80;;
31966;SDS011;18496;52.042;6.812;2022-09-13T06:03:47;31.30;;;19.10;;
31966;SDS011;18496;52.042;6.812;2022-09-13T06:05:56;34.13;;;18.45;;
31966;SDS011;18496;52.042;6.812;2022-09-13T06:08:00;29.75;;;18.40;;
31966;SDS011;18496;52.042;6.812;2022-09-13T06:10:04;28.08;;;17.95;;
31966;SDS011;18496;52.042;6.812;2022-09-13T06:12:08;30.17;;;18.70;;
31966;SDS011;18496;52.042;6.812;2022-09-13T06:14:12;33.97;;;19.42;;
31966;SDS011;18496;52.042;6.812;2022-09-13T06:16:16;32.08;;;18.80;;
31966;SDS011;18496;52.042;6.812;2022-09-13T06:18:19;30.10;;;18.17;;
31966;SDS011;18496;52.042;6.812;2022-09-13T06:20:24;30.17;;;19.02;;
31966;SDS011;18496;52.042;6.812;2022-09-13T06:22:28;32.35;;;19.63;;
31966;SDS011;18496;52.042;6.812;2022-09-13T06:24:35;27.50;;;18.13;;
31966;SDS011;18496;52.042;6.812;2022-09-13T06:26:40;31.23;;;18.95;;
31966;SDS011;18496;52.042;6.812;2022-09-13T06:28:48;35.53;;;19.55;;
31966;SDS011;18496;52.042;6.812;2022-09-13T06:31:04;32.10;;;19.35;;
31966;SDS011;18496;52.042;6.812;2022-09-13T06:33:09;35.83;;;19.02;;
31966;SDS011;18496;52.042;6.812;2022-09-13T06:35:13;33.90;;;19.00;;
31966;SDS011;18496;52.042;6.812;2022-09-13T06:37:17;35.33;;;21.35;;
31966;SDS011;18496;52.042;6.812;2022-09-13T06:39:20;29.35;;;19.33;;
31966;SDS011;18496;52.042;6.812;2022-09-13T06:41:24;32.42;;;20.00;;
31966;SDS011;18496;52.042;6.812;2022-09-13T06:43:29;32.92;;;21.40;;
31966;SDS011;18496;52.042;6.812;2022-09-13T06:45:33;33.45;;;20.27;;
31966;SDS011;18496;52.042;6.812;2022-09-13T06:47:37;31.88;;;19.95;;
31966;SDS011;18496;52.042;6.812;2022-09-13T06:49:41;31.95;;;20.92;;
31966;SDS011;18496;52.042;6.812;2022-09-13T06:51:44;28.55;;;19.45;;
31966;SDS011;18496;52.042;6.812;2022-09-13T06:53:48;32.00;;;21.05;;
31966;SDS011;18496;52.042;6.812;2022-09-13T06:56:00;33.72;;;20.63;;
31966;SDS011;18496;52.042;6.812;2022-09-13T06:58:12;36.95;;;19.77;;
31966;SDS011;18496;52.042;6.812;2022-09-13T07:00:16;32.28;;;21.17;;
31966;SDS011;18496;52.042;6.812;2022-09-13T07:02:19;32.75;;;21.45;;
31966;SDS011;18496;52.042;6.812;2022-09-13T07:04:23;35.72;;;21.42;;
31966;SDS011;18496;52.042;6.812;2022-09-13T07:06:30;36.78;;;20.98;;
31966;SDS011;18496;52.042;6.812;2022-09-13T07:08:35;35.17;;;20.45;;
31966;SDS011;18496;52.042;6.812;2022-09-13T07:10:39;33.40;;;20.48;;
31966;SDS011;18496;52.042;6.812;2022-09-13T07:12:43;36.22;;;21.50;;
31966;SDS011;18496;52.042;6.812;2022-09-13T07:14:47;33.85;;;19.58;;
31966;SDS011;18496;52.042;6.812;2022-09-13T07:16:51;34.45;;;20.10;;
31966;SDS011;18496;52.042;6.812;2022-09-13T07:18:56;34.50;;;20.42;;
31966;SDS011;18496;52.042;6.812;2022-09-13T07:21:03;33.00;;;20.65;;
31966;SDS011;18496;52.042;6.812;2022-09-13T07:23:08;32.47;;;20.58;;
31966;SDS011;18496;52.042;6.812;2022-09-13T07:25:12;37.10;;;22.35;;
31966;SDS011;18496;52.042;6.812;2022-09-13T07:27:16;34.90;;;21.00;;
31966;SDS011;18496;52.042;6.812;2022-09-13T07:29:20;35.17;;;21.10;;
31966;SDS011;18496;52.042;6.812;2022-09-13T07:31:27;38.67;;;21.13;;
31966;SDS011;18496;52.042;6.812;2022-09-13T07:33:33;32.25;;;21.15;;
31966;SDS011;18496;52.042;6.812;2022-09-13T07:35:37;36.70;;;20.77;;
31966;SDS011;18496;52.042;6.812;2022-09-13T07:37:40;34.95;;;20.67;;
31966;SDS011;18496;52.042;6.812;2022-09-13T07:39:44;31.13;;;20.23;;
31966;SDS011;18496;52.042;6.812;2022-09-13T07:41:48;32.67;;;20.45;;
31966;SDS011;18496;52.042;6.812;2022-09-13T07:43:53;34.65;;;20.45;;
31966;SDS011;18496;52.042;6.812;2022-09-13T07:48:02;35.53;;;21.50;;
31966;SDS011;18496;52.042;6.812;2022-09-13T07:50:06;34.22;;;21.42;;
31966;SDS011;18496;52.042;6.812;2022-09-13T07:52:10;31.30;;;20.70;;
31966;SDS011;18496;52.042;6.812;2022-09-13T07:54:14;34.63;;;21.02;;
31966;SDS011;18496;52.042;6.812;2022-09-13T07:56:21;32.38;;;20.77;;
31966;SDS011;18496;52.042;6.812;2022-09-13T07:58:27;34.20;;;20.52;;
31966;SDS011;18496;52.042;6.812;2022-09-13T08:00:30;32.20;;;20.45;;
31966;SDS011;18496;52.042;6.812;2022-09-13T08:02:34;34.45;;;20.38;;
31966;SDS011;18496;52.042;6.812;2022-09-13T08:04:39;32.65;;;20.80;;
31966;SDS011;18496;52.042;6.812;2022-09-13T08:06:43;38.03;;;21.35;;
31966;SDS011;18496;52.042;6.812;2022-09-13T08:08:48;35.33;;;21.48;;
31966;SDS011;18496;52.042;6.812;2022-09-13T08:10:52;32.97;;;20.10;;
31966;SDS011;18496;52.042;6.812;2022-09-13T08:12:56;34.78;;;21.13;;
31966;SDS011;18496;52.042;6.812;2022-09-13T08:14:59;33.03;;;20.15;;
31966;SDS011;18496;52.042;6.812;2022-09-13T08:17:03;34.10;;;20.48;;
31966;SDS011;18496;52.042;6.812;2022-09-13T08:19:08;33.75;;;18.40;;
31966;SDS011;18496;52.042;6.812;2022-09-13T08:21:14;33.47;;;19.88;;
31966;SDS011;18496;52.042;6.812;2022-09-13T08:23:18;31.65;;;19.35;;
31966;SDS011;18496;52.042;6.812;2022-09-13T08:25:22;34.83;;;18.95;;
31966;SDS011;18496;52.042;6.812;2022-09-13T08:27:27;34.03;;;19.42;;
31966;SDS011;18496;52.042;6.812;2022-09-13T08:29:31;35.50;;;20.13;;
31966;SDS011;18496;52.042;6.812;2022-09-13T08:31:34;32.13;;;18.63;;
31966;SDS011;18496;52.042;6.812;2022-09-13T08:33:38;32.33;;;18.15;;
31966;SDS011;18496;52.042;6.812;2022-09-13T08:35:48;35.50;;;18.92;;
31966;SDS011;18496;52.042;6.812;2022-09-13T08:37:53;31.33;;;18.42;;
31966;SDS011;18496;52.042;6.812;2022-09-13T08:39:58;34.25;;;17.27;;
31966;SDS011;18496;52.042;6.812;2022-09-13T08:44:31;28.55;;;16.33;;
31966;SDS011;18496;52.042;6.812;2022-09-13T08:46:38;29.95;;;16.90;;
31966;SDS011;18496;52.042;6.812;2022-09-13T08:48:46;27.75;;;16.08;;
31966;SDS011;18496;52.042;6.812;2022-09-13T08:50:53;29.50;;;17.08;;
31966;SDS011;18496;52.042;6.812;2022-09-13T08:53:23;28.45;;;16.55;;
31966;SDS011;18496;52.042;6.812;2022-09-13T08:57:46;29.58;;;16.95;;
31966;SDS011;18496;52.042;6.812;2022-09-13T09:06:29;33.60;;;17.08;;
31966;SDS011;18496;52.042;6.812;2022-09-13T09:08:44;29.90;;;17.92;;
31966;SDS011;18496;52.042;6.812;2022-09-13T09:11:08;31.73;;;18.08;;
31966;SDS011;18496;52.042;6.812;2022-09-13T09:13:25;27.48;;;18.25;;
31966;SDS011;18496;52.042;6.812;2022-09-13T09:15:39;24.15;;;14.25;;
31966;SDS011;18496;52.042;6.812;2022-09-13T09:17:50;27.70;;;17.23;;
31966;SDS011;18496;52.042;6.812;2022-09-13T09:20:17;29.35;;;17.70;;
31966;SDS011;18496;52.042;6.812;2022-09-13T09:22:32;31.00;;;16.75;;
31966;SDS011;18496;52.042;6.812;2022-09-13T09:24:37;28.63;;;16.63;;
31966;SDS011;18496;52.042;6.812;2022-09-13T09:26:46;25.65;;;16.10;;
31966;SDS011;18496;52.042;6.812;2022-09-13T09:29:13;24.90;;;14.82;;
31966;SDS011;18496;52.042;6.812;2022-09-13T09:38:23;28.75;;;14.98;;
31966;SDS011;18496;52.042;6.812;2022-09-13T09:40:33;28.17;;;14.88;;
31966;SDS011;18496;52.042;6.812;2022-09-13T09:42:41;21.60;;;13.80;;
31966;SDS011;18496;52.042;6.812;2022-09-13T09:45:32;22.70;;;14.43;;
31966;SDS011;18496;52.042;6.812;2022-09-13T09:47:29;22.45;;;14.43;;
31966;SDS011;18496;52.042;6.812;2022-09-13T09:49:45;25.60;;;13.85;;
31966;SDS011;18496;52.042;6.812;2022-09-13T09:52:11;23.00;;;13.88;;
31966;SDS011;18496;52.042;6.812;2022-09-13T09:54:19;23.52;;;13.13;;
31966;SDS011;18496;52.042;6.812;2022-09-13T09:56:25;27.33;;;13.90;;
31966;SDS011;18496;52.042;6.812;2022-09-13T09:58:39;20.33;;;14.20;;
31966;SDS011;18496;52.042;6.812;2022-09-13T10:02:59;15.30;;;11.02;;
31966;SDS011;18496;52.042;6.812;2022-09-13T10:05:07;19.27;;;12.40;;
31966;SDS011;18496;52.042;6.812;2022-09-13T10:07:25;21.63;;;13.25;;
31966;SDS011;18496;52.042;6.812;2022-09-13T10:11:42;26.05;;;11.02;;
31966;SDS011;18496;52.042;6.812;2022-09-13T10:13:59;18.58;;;11.48;;
31966;SDS011;18496;52.042;6.812;2022-09-13T10:16:05;17.63;;;10.40;;
31966;SDS011;18496;52.042;6.812;2022-09-13T10:18:32;13.13;;;9.25;;
31966;SDS011;18496;52.042;6.812;2022-09-13T10:20:37;16.55;;;8.85;;
31966;SDS011;18496;52.042;6.812;2022-09-13T10:22:41;20.77;;;9.35;;
31966;SDS011;18496;52.042;6.812;2022-09-13T10:24:47;16.80;;;8.73;;
31966;SDS011;18496;52.042;6.812;2022-09-13T10:26:52;14.75;;;8.35;;
31966;SDS011;18496;52.042;6.812;2022-09-13T10:28:59;16.10;;;9.10;;
31966;SDS011;18496;52.042;6.812;2022-09-13T10:31:15;15.52;;;8.48;;
31966;SDS011;18496;52.042;6.812;2022-09-13T10:33:31;12.43;;;7.63;;
31966;SDS011;18496;52.042;6.812;2022-09-13T10:35:37;14.75;;;6.90;;
31966;SDS011;18496;52.042;6.812;2022-09-13T10:37:41;13.02;;;7.13;;
31966;SDS011;18496;52.042;6.812;2022-09-13T10:42:05;15.30;;;8.02;;
31966;SDS011;18496;52.042;6.812;2022-09-13T10:44:25;10.70;;;7.00;;
31966;SDS011;18496;52.042;6.812;2022-09-13T10:47:01;8.52;;;6.60;;
31966;SDS011;18496;52.042;6.812;2022-09-13T10:49:33;12.75;;;6.55;;
31966;SDS011;18496;52.042;6.812;2022-09-13T10:51:37;13.38;;;6.80;;
31966;SDS011;18496;52.042;6.812;2022-09-13T10:53:42;10.82;;;6.40;;
31966;SDS011;18496;52.042;6.812;2022-09-13T10:55:51;10.90;;;6.47;;
31966;SDS011;18496;52.042;6.812;2022-09-13T10:58:11;9.95;;;6.30;;
31966;SDS011;18496;52.042;6.812;2022-09-13T11:00:19;11.45;;;6.13;;
31966;SDS011;18496;52.042;6.812;2022-09-13T11:04:43;9.38;;;5.68;;
31966;SDS011;18496;52.042;6.812;2022-09-13T11:06:57;10.77;;;5.97;;
31966;SDS011;18496;52.042;6.812;2022-09-13T11:12:30;10.45;;;4.72;;
31966;SDS011;18496;52.042;6.812;2022-09-13T11:35:42;3.85;;;2.58;;
31966;SDS011;18496;52.042;6.812;2022-09-13T11:45:18;8.68;;;2.65;;
31966;SDS011;18496;52.042;6.812;2022-09-13T11:47:41;2.67;;;2.30;;
31966;SDS011;18496;52.042;6.812;2022-09-13T11:57:39;6.55;;;3.00;;
31966;SDS011;18496;52.042;6.812;2022-09-13T12:02:38;9.45;;;2.72;;
31966;SDS011;18496;52.042;6.812;2022-09-13T12:06:53;8.20;;;3.42;;
31966;SDS011;18496;52.042;6.812;2022-09-13T12:11:11;8.75;;;3.10;;
31966;SDS011;18496;52.042;6.812;2022-09-13T12:17:41;4.10;;;2.47;;
31966;SDS011;18496;52.042;6.812;2022-09-13T12:19:48;5.70;;;3.00;;
31966;SDS011;18496;52.042;6.812;2022-09-13T12:21:57;5.35;;;2.17;;
31966;SDS011;18496;52.042;6.812;2022-09-13T12:24:06;3.55;;;2.40;;
31966;SDS011;18496;52.042;6.812;2022-09-13T12:26:38;3.83;;;2.20;;
31966;SDS011;18496;52.042;6.812;2022-09-13T12:31:23;7.10;;;2.08;;
31966;SDS011;18496;52.042;6.812;2022-09-13T12:33:28;3.88;;;1.40;;
31966;SDS011;18496;52.042;6.812;2022-09-13T12:35:47;2.58;;;1.15;;
31966;SDS011;18496;52.042;6.812;2022-09-13T12:43:11;2.15;;;1.30;;
31966;SDS011;18496;52.042;6.812;2022-09-13T12:53:08;2.28;;;1.20;;
31966;SDS011;18496;52.042;6.812;2022-09-13T12:55:20;3.47;;;1.23;;
31966;SDS011;18496;52.042;6.812;2022-09-13T13:00:00;2.13;;;0.95;;
31966;SDS011;18496;52.042;6.812;2022-09-13T13:04:38;3.33;;;1.20;;
31966;SDS011;18496;52.042;6.812;2022-09-13T13:08:56;3.72;;;1.20;;
31966;SDS011;18496;52.042;6.812;2022-09-13T13:13:20;1.60;;;1.05;;
31966;SDS011;18496;52.042;6.812;2022-09-13T13:17:42;2.33;;;1.10;;
31966;SDS011;18496;52.042;6.812;2022-09-13T13:19:50;3.75;;;1.10;;
31966;SDS011;18496;52.042;6.812;2022-09-13T13:21:54;1.80;;;1.00;;
31966;SDS011;18496;52.042;6.812;2022-09-13T13:30:52;1.30;;;0.90;;
31966;SDS011;18496;52.042;6.812;2022-09-13T13:33:17;6.90;;;1.45;;
31966;SDS011;18496;52.042;6.812;2022-09-13T13:35:29;3.88;;;1.00;;
31966;SDS011;18496;52.042;6.812;2022-09-13T13:37:34;1.85;;;0.90;;
31966;SDS011;18496;52.042;6.812;2022-09-13T13:41:43;2.60;;;1.00;;
31966;SDS011;18496;52.042;6.812;2022-09-13T13:43:54;4.00;;;1.65;;
31966;SDS011;18496;52.042;6.812;2022-09-13T13:48:14;2.35;;;0.98;;
31966;SDS011;18496;52.042;6.812;2022-09-13T13:50:18;2.28;;;0.98;;
31966;SDS011;18496;52.042;6.812;2022-09-13T13:54:27;2.28;;;1.00;;
31966;SDS011;18496;52.042;6.812;2022-09-13T13:56:43;3.85;;;1.08;;
31966;SDS011;18496;52.042;6.812;2022-09-13T14:00:57;2.28;;;0.77;;
31966;SDS011;18496;52.042;6.812;2022-09-13T14:21:21;2.92;;;0.50;;
31966;SDS011;18496;52.042;6.812;2022-09-13T14:23:27;2.03;;;0.75;;
31966;SDS011;18496;52.042;6.812;2022-09-13T14:25:32;2.45;;;0.75;;
31966;SDS011;18496;52.042;6.812;2022-09-13T14:27:35;2.58;;;0.88;;
31966;SDS011;18496;52.042;6.812;2022-09-13T14:29:42;0.75;;;0.60;;
31966;SDS011;18496;52.042;6.812;2022-09-13T14:31:51;2.00;;;0.60;;
31966;SDS011;18496;52.042;6.812;2022-09-13T14:33:56;3.83;;;0.95;;
31966;SDS011;18496;52.042;6.812;2022-09-13T14:38:20;3.00;;;0.80;;
31966;SDS011;18496;52.042;6.812;2022-09-13T14:40:27;2.17;;;0.80;;
31966;SDS011;18496;52.042;6.812;2022-09-13T14:42:41;0.50;;;0.50;;
31966;SDS011;18496;52.042;6.812;2022-09-13T14:44:46;3.17;;;0.90;;
31966;SDS011;18496;52.042;6.812;2022-09-13T14:46:52;0.82;;;0.60;;
31966;SDS011;18496;52.042;6.812;2022-09-13T14:49:01;1.27;;;0.60;;
31966;SDS011;18496;52.042;6.812;2022-09-13T14:53:21;1.05;;;0.65;;
31966;SDS011;18496;52.042;6.812;2022-09-13T14:55:38;4.97;;;0.63;;
31966;SDS011;18496;52.042;6.812;2022-09-13T14:57:54;1.15;;;0.60;;
31966;SDS011;18496;52.042;6.812;2022-09-13T15:00:05;3.92;;;0.80;;
31966;SDS011;18496;52.042;6.812;2022-09-13T15:02:22;1.90;;;0.70;;
31966;SDS011;18496;52.042;6.812;2022-09-13T15:04:27;0.55;;;0.50;;
31966;SDS011;18496;52.042;6.812;2022-09-13T15:06:32;4.78;;;0.77;;
31966;SDS011;18496;52.042;6.812;2022-09-13T15:08:45;3.95;;;0.80;;
31966;SDS011;18496;52.042;6.812;2022-09-13T15:10:50;3.17;;;0.70;;
31966;SDS011;18496;52.042;6.812;2022-09-13T15:15:18;3.90;;;0.80;;
31966;SDS011;18496;52.042;6.812;2022-09-13T15:17:23;1.65;;;0.68;;
31966;SDS011;18496;52.042;6.812;2022-09-13T15:19:28;3.72;;;1.00;;
31966;SDS011;18496;52.042;6.812;2022-09-13T15:21:34;3.17;;;1.20;;
31966;SDS011;18496;52.042;6.812;2022-09-13T15:23:41;1.85;;;1.20;;
31966;SDS011;18496;52.042;6.812;2022-09-13T15:25:53;1.50;;;0.80;;
31966;SDS011;18496;52.042;6.812;2022-09-13T15:28:03;1.38;;;0.90;;
31966;SDS011;18496;52.042;6.812;2022-09-13T15:30:18;5.90;;;1.05;;
31966;SDS011;18496;52.042;6.812;2022-09-13T15:32:27;2.53;;;0.95;;
31966;SDS011;18496;52.042;6.812;2022-09-13T15:34:44;2.90;;;1.00;;
31966;SDS011;18496;52.042;6.812;2022-09-13T15:36:49;1.38;;;0.70;;
31966;SDS011;18496;52.042;6.812;2022-09-13T15:39:13;2.17;;;1.35;;
31966;SDS011;18496;52.042;6.812;2022-09-13T15:41:22;2.78;;;1.67;;
31966;SDS011;18496;52.042;6.812;2022-09-13T15:43:29;4.97;;;1.10;;
31966;SDS011;18496;52.042;6.812;2022-09-13T15:45:33;2.20;;;0.70;;
31966;SDS011;18496;52.042;6.812;2022-09-13T15:47:37;1.65;;;0.90;;
31966;SDS011;18496;52.042;6.812;2022-09-13T15:49:40;3.13;;;1.17;;
31966;SDS011;18496;52.042;6.812;2022-09-13T15:51:57;6.05;;;1.25;;
31966;SDS011;18496;52.042;6.812;2022-09-13T15:54:09;5.60;;;1.20;;
31966;SDS011;18496;52.042;6.812;2022-09-13T15:56:19;2.58;;;1.10;;